sensor_id;sensor_type;location;lat;lon;timestamp;temperature;humidity
13336;DHT22;6737;51.480;11.962;2023-08-07T00:02:03;15.10;99.90
13336;DHT22;6737;51.480;11.962;2023-08-07T00:04:29;15.20;99.90
13336;DHT22;6737;51.480;11.962;2023-08-07T00:06:55;15.20;99.90
13336;DHT22;6737;51.480;11.962;2023-08-07T00:09:21;15.20;99.90
13336;DHT22;6737;51.480;11.962;2023-08-07T00:11:46;15.20;99.90
13336;DHT22;6737;51.480;11.962;2023-08-07T00:14:12;15.10;99.90
13336;DHT22;6737;51.480;11.962;2023-08-07T00:16:38;15.20;99.90
13336;DHT22;6737;51.480;11.962;2023-08-07T00:19:04;15.20;99.90
13336;DHT22;6737;51.480;11.962;2023-08-07T00:21:29;15.20;99.90
13336;DHT22;6737;51.480;11.962;2023-08-07T00:23:55;15.20;99.90
13336;DHT22;6737;51.480;11.962;2023-08-07T00:26:21;15.20;99.90
13336;DHT22;6737;51.480;11.962;2023-08-07T00:28:47;15.20;99.90
13336;DHT22;6737;51.480;11.962;2023-08-07T00:31:13;15.20;99.90
13336;DHT22;6737;51.480;11.962;2023-08-07T00:33:38;15.20;99.90
13336;DHT22;6737;51.480;11.962;2023-08-07T00:36:04;15.20;99.90
13336;DHT22;6737;51.480;11.962;2023-08-07T00:38:30;15.20;99.90
13336;DHT22;6737;51.480;11.962;2023-08-07T00:40:56;15.20;99.90
13336;DHT22;6737;51.480;11.962;2023-08-07T00:43:21;15.20;99.90
13336;DHT22;6737;51.480;11.962;2023-08-07T00:45:48;15.20;99.90
13336;DHT22;6737;51.480;11.962;2023-08-07T00:48:16;15.20;99.90
13336;DHT22;6737;51.480;11.962;2023-08-07T00:50:44;15.20;99.90
13336;DHT22;6737;51.480;11.962;2023-08-07T00:53:11;15.20;99.90
13336;DHT22;6737;51.480;11.962;2023-08-07T00:55:37;15.20;99.90
13336;DHT22;6737;51.480;11.962;2023-08-07T00:58:03;15.20;99.90
13336;DHT22;6737;51.480;11.962;2023-08-07T01:00:29;15.20;99.90
13336;DHT22;6737;51.480;11.962;2023-08-07T01:02:59;15.10;99.90
13336;DHT22;6737;51.480;11.962;2023-08-07T01:05:25;15.10;99.90
13336;DHT22;6737;51.480;11.962;2023-08-07T01:07:53;15.10;99.90
13336;DHT22;6737;51.480;11.962;2023-08-07T01:10:35;15.10;99.90
13336;DHT22;6737;51.480;11.962;2023-08-07T01:13:31;15.10;99.90
13336;DHT22;6737;51.480;11.962;2023-08-07T01:16:03;15.10;99.90
13336;DHT22;6737;51.480;11.962;2023-08-07T01:18:34;15.10;99.90
13336;DHT22;6737;51.480;11.962;2023-08-07T01:21:00;15.10;99.90
13336;DHT22;6737;51.480;11.962;2023-08-07T01:23:28;15.10;99.90
13336;DHT22;6737;51.480;11.962;2023-08-07T01:25:54;15.00;99.90
13336;DHT22;6737;51.480;11.962;2023-08-07T01:28:31;15.00;99.90
13336;DHT22;6737;51.480;11.962;2023-08-07T01:31:01;15.00;99.90
13336;DHT22;6737;51.480;11.962;2023-08-07T01:33:43;15.00;99.90
13336;DHT22;6737;51.480;11.962;2023-08-07T01:36:14;15.10;99.90
13336;DHT22;6737;51.480;11.962;2023-08-07T01:38:42;15.10;99.90
13336;DHT22;6737;51.480;11.962;2023-08-07T01:41:09;15.10;99.90
13336;DHT22;6737;51.480;11.962;2023-08-07T01:43:35;15.10;99.90
13336;DHT22;6737;51.480;11.962;2023-08-07T01:46:01;15.10;99.90
13336;DHT22;6737;51.480;11.962;2023-08-07T01:48:28;15.00;99.90
13336;DHT22;6737;51.480;11.962;2023-08-07T01:50:54;15.00;99.90
13336;DHT22;6737;51.480;11.962;2023-08-07T01:53:21;15.00;99.90
13336;DHT22;6737;51.480;11.962;2023-08-07T01:55:47;15.00;99.90
13336;DHT22;6737;51.480;11.962;2023-08-07T01:58:12;15.00;99.90
13336;DHT22;6737;51.480;11.962;2023-08-07T02:00:38;14.90;99.90
13336;DHT22;6737;51.480;11.962;2023-08-07T02:03:04;14.90;99.90
13336;DHT22;6737;51.480;11.962;2023-08-07T02:05:29;14.90;99.90
13336;DHT22;6737;51.480;11.962;2023-08-07T02:07:55;14.80;99.90
13336;DHT22;6737;51.480;11.962;2023-08-07T02:10:22;14.80;99.90
13336;DHT22;6737;51.480;11.962;2023-08-07T02:12:49;14.80;99.90
13336;DHT22;6737;51.480;11.962;2023-08-07T02:15:14;14.80;99.90
13336;DHT22;6737;51.480;11.962;2023-08-07T02:17:40;14.80;99.90
13336;DHT22;6737;51.480;11.962;2023-08-07T02:20:07;14.80;99.90
13336;DHT22;6737;51.480;11.962;2023-08-07T02:22:33;14.80;99.90
13336;DHT22;6737;51.480;11.962;2023-08-07T02:24:59;14.80;99.90
13336;DHT22;6737;51.480;11.962;2023-08-07T02:27:25;14.80;99.90
13336;DHT22;6737;51.480;11.962;2023-08-07T02:29:51;14.80;99.90
13336;DHT22;6737;51.480;11.962;2023-08-07T02:32:16;14.80;99.90
13336;DHT22;6737;51.480;11.962;2023-08-07T02:34:44;14.70;99.90
13336;DHT22;6737;51.480;11.962;2023-08-07T02:37:10;14.70;99.90
13336;DHT22;6737;51.480;11.962;2023-08-07T02:39:36;14.70;99.90
13336;DHT22;6737;51.480;11.962;2023-08-07T02:42:02;14.80;99.90
13336;DHT22;6737;51.480;11.962;2023-08-07T02:44:28;14.80;99.90
13336;DHT22;6737;51.480;11.962;2023-08-07T02:46:54;14.70;99.90
13336;DHT22;6737;51.480;11.962;2023-08-07T02:49:20;14.70;99.90
13336;DHT22;6737;51.480;11.962;2023-08-07T02:51:46;14.80;99.90
13336;DHT22;6737;51.480;11.962;2023-08-07T02:54:12;14.80;99.90
13336;DHT22;6737;51.480;11.962;2023-08-07T02:56:37;14.70;99.90
13336;DHT22;6737;51.480;11.962;2023-08-07T02:59:03;14.80;99.90
13336;DHT22;6737;51.480;11.962;2023-08-07T03:01:30;14.80;99.90
13336;DHT22;6737;51.480;11.962;2023-08-07T03:03:56;14.70;99.90
13336;DHT22;6737;51.480;11.962;2023-08-07T03:06:22;14.80;99.90
13336;DHT22;6737;51.480;11.962;2023-08-07T03:08:48;14.80;99.90
13336;DHT22;6737;51.480;11.962;2023-08-07T03:11:13;14.80;99.90
13336;DHT22;6737;51.480;11.962;2023-08-07T03:13:39;14.80;99.90
13336;DHT22;6737;51.480;11.962;2023-08-07T03:16:06;14.70;99.90
13336;DHT22;6737;51.480;11.962;2023-08-07T03:18:33;14.70;99.90
13336;DHT22;6737;51.480;11.962;2023-08-07T03:20:59;14.70;99.90
13336;DHT22;6737;51.480;11.962;2023-08-07T03:23:26;14.80;99.90
13336;DHT22;6737;51.480;11.962;2023-08-07T03:26:23;14.70;99.90
13336;DHT22;6737;51.480;11.962;2023-08-07T03:28:48;14.70;99.90
13336;DHT22;6737;51.480;11.962;2023-08-07T03:31:14;14.70;99.90
13336;DHT22;6737;51.480;11.962;2023-08-07T03:33:40;14.70;99.90
13336;DHT22;6737;51.480;11.962;2023-08-07T03:36:06;14.70;99.90
13336;DHT22;6737;51.480;11.962;2023-08-07T03:38:32;14.60;99.90
13336;DHT22;6737;51.480;11.962;2023-08-07T03:40:58;14.60;99.90
13336;DHT22;6737;51.480;11.962;2023-08-07T03:43:23;14.60;99.90
13336;DHT22;6737;51.480;11.962;2023-08-07T03:45:55;14.60;99.90
13336;DHT22;6737;51.480;11.962;2023-08-07T03:48:22;14.60;99.90
13336;DHT22;6737;51.480;11.962;2023-08-07T03:50:48;14.60;99.90
13336;DHT22;6737;51.480;11.962;2023-08-07T03:53:13;14.50;99.90
13336;DHT22;6737;51.480;11.962;2023-08-07T03:55:39;14.50;99.90
13336;DHT22;6737;51.480;11.962;2023-08-07T03:58:07;14.50;99.90
13336;DHT22;6737;51.480;11.962;2023-08-07T04:00:33;14.60;99.90
13336;DHT22;6737;51.480;11.962;2023-08-07T04:02:59;14.60;99.90
13336;DHT22;6737;51.480;11.962;2023-08-07T04:05:24;14.60;99.90
13336;DHT22;6737;51.480;11.962;2023-08-07T04:07:50;14.60;99.90
13336;DHT22;6737;51.480;11.962;2023-08-07T04:10:16;14.60;99.90
13336;DHT22;6737;51.480;11.962;2023-08-07T04:12:42;14.60;99.90
13336;DHT22;6737;51.480;11.962;2023-08-07T04:15:08;14.60;99.90
13336;DHT22;6737;51.480;11.962;2023-08-07T04:17:35;14.60;99.90
13336;DHT22;6737;51.480;11.962;2023-08-07T04:20:02;14.50;99.90
13336;DHT22;6737;51.480;11.962;2023-08-07T04:22:29;14.50;99.90
13336;DHT22;6737;51.480;11.962;2023-08-07T04:24:55;14.50;99.90
13336;DHT22;6737;51.480;11.962;2023-08-07T04:27:20;14.50;99.90
13336;DHT22;6737;51.480;11.962;2023-08-07T04:29:46;14.50;99.90
13336;DHT22;6737;51.480;11.962;2023-08-07T04:32:12;14.50;99.90
13336;DHT22;6737;51.480;11.962;2023-08-07T04:34:37;14.50;99.90
13336;DHT22;6737;51.480;11.962;2023-08-07T04:37:04;14.50;99.90
13336;DHT22;6737;51.480;11.962;2023-08-07T04:39:30;14.50;99.90
13336;DHT22;6737;51.480;11.962;2023-08-07T04:41:57;14.50;99.90
13336;DHT22;6737;51.480;11.962;2023-08-07T04:44:23;14.50;99.90
13336;DHT22;6737;51.480;11.962;2023-08-07T04:46:49;14.50;99.90
13336;DHT22;6737;51.480;11.962;2023-08-07T04:49:14;14.50;99.90
13336;DHT22;6737;51.480;11.962;2023-08-07T04:51:40;14.50;99.90
13336;DHT22;6737;51.480;11.962;2023-08-07T04:54:06;14.50;99.90
13336;DHT22;6737;51.480;11.962;2023-08-07T04:56:32;14.50;99.90
13336;DHT22;6737;51.480;11.962;2023-08-07T04:58:57;14.60;99.90
13336;DHT22;6737;51.480;11.962;2023-08-07T05:01:23;14.50;99.90
13336;DHT22;6737;51.480;11.962;2023-08-07T05:03:49;14.60;99.90
13336;DHT22;6737;51.480;11.962;2023-08-07T05:06:15;14.60;99.90
13336;DHT22;6737;51.480;11.962;2023-08-07T05:08:40;14.60;99.90
13336;DHT22;6737;51.480;11.962;2023-08-07T05:11:06;14.60;99.90
13336;DHT22;6737;51.480;11.962;2023-08-07T05:13:32;14.60;99.90
13336;DHT22;6737;51.480;11.962;2023-08-07T05:15:58;14.60;99.90
13336;DHT22;6737;51.480;11.962;2023-08-07T05:18:23;14.60;99.90
13336;DHT22;6737;51.480;11.962;2023-08-07T05:20:49;14.60;99.90
13336;DHT22;6737;51.480;11.962;2023-08-07T05:23:15;14.60;99.90
13336;DHT22;6737;51.480;11.962;2023-08-07T05:25:41;14.60;99.90
13336;DHT22;6737;51.480;11.962;2023-08-07T05:28:06;14.70;99.90
13336;DHT22;6737;51.480;11.962;2023-08-07T05:30:33;14.70;99.90
13336;DHT22;6737;51.480;11.962;2023-08-07T05:32:58;14.70;99.90
13336;DHT22;6737;51.480;11.962;2023-08-07T05:35:25;14.70;99.90
13336;DHT22;6737;51.480;11.962;2023-08-07T05:37:50;14.70;99.90
13336;DHT22;6737;51.480;11.962;2023-08-07T05:40:16;14.70;99.90
13336;DHT22;6737;51.480;11.962;2023-08-07T05:42:42;14.70;99.90
13336;DHT22;6737;51.480;11.962;2023-08-07T05:45:08;14.70;99.90
13336;DHT22;6737;51.480;11.962;2023-08-07T05:47:35;14.70;99.90
13336;DHT22;6737;51.480;11.962;2023-08-07T05:50:02;14.70;99.90
13336;DHT22;6737;51.480;11.962;2023-08-07T05:52:28;14.70;99.90
13336;DHT22;6737;51.480;11.962;2023-08-07T05:54:53;14.70;99.90
13336;DHT22;6737;51.480;11.962;2023-08-07T05:57:19;14.70;99.90
13336;DHT22;6737;51.480;11.962;2023-08-07T05:59:47;14.70;99.90
13336;DHT22;6737;51.480;11.962;2023-08-07T06:02:13;14.80;99.90
13336;DHT22;6737;51.480;11.962;2023-08-07T06:04:39;14.70;99.90
13336;DHT22;6737;51.480;11.962;2023-08-07T06:07:06;14.80;99.90
13336;DHT22;6737;51.480;11.962;2023-08-07T06:09:32;14.80;99.90
13336;DHT22;6737;51.480;11.962;2023-08-07T06:11:59;14.80;99.90
13336;DHT22;6737;51.480;11.962;2023-08-07T06:14:25;14.80;99.90
13336;DHT22;6737;51.480;11.962;2023-08-07T06:16:51;14.90;99.90
13336;DHT22;6737;51.480;11.962;2023-08-07T06:19:18;14.90;99.90
13336;DHT22;6737;51.480;11.962;2023-08-07T06:21:45;14.90;99.90
13336;DHT22;6737;51.480;11.962;2023-08-07T06:24:11;14.90;99.90
13336;DHT22;6737;51.480;11.962;2023-08-07T06:26:38;15.00;99.90
13336;DHT22;6737;51.480;11.962;2023-08-07T06:29:03;15.00;99.90
13336;DHT22;6737;51.480;11.962;2023-08-07T06:31:29;15.00;99.90
13336;DHT22;6737;51.480;11.962;2023-08-07T06:33:55;15.00;99.90
13336;DHT22;6737;51.480;11.962;2023-08-07T06:36:21;15.00;99.90
13336;DHT22;6737;51.480;11.962;2023-08-07T06:38:47;15.10;99.90
13336;DHT22;6737;51.480;11.962;2023-08-07T06:41:13;15.10;99.90
13336;DHT22;6737;51.480;11.962;2023-08-07T06:43:38;15.10;99.90
13336;DHT22;6737;51.480;11.962;2023-08-07T06:46:04;15.10;99.90
13336;DHT22;6737;51.480;11.962;2023-08-07T06:48:30;15.10;99.90
13336;DHT22;6737;51.480;11.962;2023-08-07T06:50:56;15.20;99.90
13336;DHT22;6737;51.480;11.962;2023-08-07T06:53:22;15.30;99.90
13336;DHT22;6737;51.480;11.962;2023-08-07T06:55:47;15.30;99.90
13336;DHT22;6737;51.480;11.962;2023-08-07T06:58:13;15.30;99.90
13336;DHT22;6737;51.480;11.962;2023-08-07T07:00:39;15.30;99.90
13336;DHT22;6737;51.480;11.962;2023-08-07T07:03:05;15.30;99.90
13336;DHT22;6737;51.480;11.962;2023-08-07T07:05:33;15.40;99.90
13336;DHT22;6737;51.480;11.962;2023-08-07T07:07:58;15.40;99.90
13336;DHT22;6737;51.480;11.962;2023-08-07T07:10:24;15.40;99.90
13336;DHT22;6737;51.480;11.962;2023-08-07T07:12:50;15.50;99.90
13336;DHT22;6737;51.480;11.962;2023-08-07T07:15:16;15.50;99.90
13336;DHT22;6737;51.480;11.962;2023-08-07T07:17:42;15.60;99.90
13336;DHT22;6737;51.480;11.962;2023-08-07T07:20:08;15.60;99.90
13336;DHT22;6737;51.480;11.962;2023-08-07T07:22:35;15.70;99.90
13336;DHT22;6737;51.480;11.962;2023-08-07T07:25:01;15.80;99.90
13336;DHT22;6737;51.480;11.962;2023-08-07T07:27:27;15.80;99.90
13336;DHT22;6737;51.480;11.962;2023-08-07T07:29:53;15.90;99.90
13336;DHT22;6737;51.480;11.962;2023-08-07T07:32:19;15.90;99.90
13336;DHT22;6737;51.480;11.962;2023-08-07T07:34:45;16.00;99.90
13336;DHT22;6737;51.480;11.962;2023-08-07T07:37:10;16.00;99.90
13336;DHT22;6737;51.480;11.962;2023-08-07T07:39:36;15.90;99.90
13336;DHT22;6737;51.480;11.962;2023-08-07T07:42:02;15.90;99.90
13336;DHT22;6737;51.480;11.962;2023-08-07T07:44:30;15.80;99.90
13336;DHT22;6737;51.480;11.962;2023-08-07T07:46:56;15.90;99.90
13336;DHT22;6737;51.480;11.962;2023-08-07T07:49:22;15.90;99.90
13336;DHT22;6737;51.480;11.962;2023-08-07T07:51:48;15.90;99.90
13336;DHT22;6737;51.480;11.962;2023-08-07T07:54:14;16.00;99.90
13336;DHT22;6737;51.480;11.962;2023-08-07T07:56:42;16.00;99.90
13336;DHT22;6737;51.480;11.962;2023-08-07T07:59:07;16.00;99.90
13336;DHT22;6737;51.480;11.962;2023-08-07T08:01:33;16.10;99.90
13336;DHT22;6737;51.480;11.962;2023-08-07T08:03:59;16.10;99.90
13336;DHT22;6737;51.480;11.962;2023-08-07T08:06:24;16.20;99.90
13336;DHT22;6737;51.480;11.962;2023-08-07T08:08:50;16.30;99.90
13336;DHT22;6737;51.480;11.962;2023-08-07T08:11:16;16.40;99.90
13336;DHT22;6737;51.480;11.962;2023-08-07T08:13:42;16.40;99.90
13336;DHT22;6737;51.480;11.962;2023-08-07T08:16:07;16.50;99.90
13336;DHT22;6737;51.480;11.962;2023-08-07T08:18:33;16.40;99.90
13336;DHT22;6737;51.480;11.962;2023-08-07T08:20:59;16.40;99.90
13336;DHT22;6737;51.480;11.962;2023-08-07T08:23:25;16.40;99.90
13336;DHT22;6737;51.480;11.962;2023-08-07T08:25:51;16.40;99.90
13336;DHT22;6737;51.480;11.962;2023-08-07T08:28:17;16.40;99.90
13336;DHT22;6737;51.480;11.962;2023-08-07T08:30:43;16.40;99.90
13336;DHT22;6737;51.480;11.962;2023-08-07T08:33:09;16.30;99.90
13336;DHT22;6737;51.480;11.962;2023-08-07T08:35:38;16.30;99.90
13336;DHT22;6737;51.480;11.962;2023-08-07T08:38:04;16.40;99.90
13336;DHT22;6737;51.480;11.962;2023-08-07T08:40:30;16.50;99.90
13336;DHT22;6737;51.480;11.962;2023-08-07T08:42:57;16.50;99.90
13336;DHT22;6737;51.480;11.962;2023-08-07T08:45:27;16.50;99.90
13336;DHT22;6737;51.480;11.962;2023-08-07T08:48:01;16.60;99.90
13336;DHT22;6737;51.480;11.962;2023-08-07T08:50:28;16.70;99.90
13336;DHT22;6737;51.480;11.962;2023-08-07T08:52:55;16.80;99.90
13336;DHT22;6737;51.480;11.962;2023-08-07T08:55:22;16.80;99.90
13336;DHT22;6737;51.480;11.962;2023-08-07T08:57:48;16.90;99.90
13336;DHT22;6737;51.480;11.962;2023-08-07T09:00:16;17.00;99.90
13336;DHT22;6737;51.480;11.962;2023-08-07T09:02:47;17.10;99.90
13336;DHT22;6737;51.480;11.962;2023-08-07T09:05:20;17.20;99.90
13336;DHT22;6737;51.480;11.962;2023-08-07T09:07:47;17.30;99.90
13336;DHT22;6737;51.480;11.962;2023-08-07T09:10:14;17.30;99.90
13336;DHT22;6737;51.480;11.962;2023-08-07T09:12:42;17.40;99.90
13336;DHT22;6737;51.480;11.962;2023-08-07T09:15:11;17.50;99.90
13336;DHT22;6737;51.480;11.962;2023-08-07T09:17:41;17.60;99.90
13336;DHT22;6737;51.480;11.962;2023-08-07T09:20:08;17.60;99.90
13336;DHT22;6737;51.480;11.962;2023-08-07T09:22:39;17.50;99.90
13336;DHT22;6737;51.480;11.962;2023-08-07T09:25:06;17.50;99.90
13336;DHT22;6737;51.480;11.962;2023-08-07T09:27:32;17.40;99.90
13336;DHT22;6737;51.480;11.962;2023-08-07T09:29:58;17.30;99.90
13336;DHT22;6737;51.480;11.962;2023-08-07T09:32:24;17.10;99.90
13336;DHT22;6737;51.480;11.962;2023-08-07T09:34:51;16.90;99.90
13336;DHT22;6737;51.480;11.962;2023-08-07T09:37:20;16.50;99.90
13336;DHT22;6737;51.480;11.962;2023-08-07T09:39:46;16.30;99.90
13336;DHT22;6737;51.480;11.962;2023-08-07T09:42:13;16.10;99.90
13336;DHT22;6737;51.480;11.962;2023-08-07T09:44:41;15.90;99.90
13336;DHT22;6737;51.480;11.962;2023-08-07T09:47:14;15.80;99.90
13336;DHT22;6737;51.480;11.962;2023-08-07T09:49:40;15.70;99.90
13336;DHT22;6737;51.480;11.962;2023-08-07T09:52:08;15.70;99.90
13336;DHT22;6737;51.480;11.962;2023-08-07T09:54:34;15.60;99.90
13336;DHT22;6737;51.480;11.962;2023-08-07T09:57:04;15.60;99.90
13336;DHT22;6737;51.480;11.962;2023-08-07T09:59:32;15.70;99.90
13336;DHT22;6737;51.480;11.962;2023-08-07T10:02:03;15.70;99.90
13336;DHT22;6737;51.480;11.962;2023-08-07T10:04:29;15.70;99.90
13336;DHT22;6737;51.480;11.962;2023-08-07T10:06:56;15.70;99.90
13336;DHT22;6737;51.480;11.962;2023-08-07T10:09:23;15.80;99.90
13336;DHT22;6737;51.480;11.962;2023-08-07T10:11:50;15.80;99.90
13336;DHT22;6737;51.480;11.962;2023-08-07T10:14:16;15.90;99.90
13336;DHT22;6737;51.480;11.962;2023-08-07T10:16:42;15.90;99.90
13336;DHT22;6737;51.480;11.962;2023-08-07T10:19:09;16.10;99.90
13336;DHT22;6737;51.480;11.962;2023-08-07T10:21:36;16.30;99.90
13336;DHT22;6737;51.480;11.962;2023-08-07T10:24:04;16.40;99.90
13336;DHT22;6737;51.480;11.962;2023-08-07T10:26:34;16.50;99.90
13336;DHT22;6737;51.480;11.962;2023-08-07T10:29:05;16.50;99.90
13336;DHT22;6737;51.480;11.962;2023-08-07T10:31:33;16.50;99.90
13336;DHT22;6737;51.480;11.962;2023-08-07T10:34:01;16.40;99.90
13336;DHT22;6737;51.480;11.962;2023-08-07T10:36:35;16.30;99.90
13336;DHT22;6737;51.480;11.962;2023-08-07T10:39:11;16.10;99.90
13336;DHT22;6737;51.480;11.962;2023-08-07T10:41:46;16.20;99.90
13336;DHT22;6737;51.480;11.962;2023-08-07T10:44:23;16.20;99.90
13336;DHT22;6737;51.480;11.962;2023-08-07T10:46:53;16.30;99.90
13336;DHT22;6737;51.480;11.962;2023-08-07T10:49:36;16.30;99.90
13336;DHT22;6737;51.480;11.962;2023-08-07T10:52:08;16.40;99.90
13336;DHT22;6737;51.480;11.962;2023-08-07T10:54:40;16.70;99.90
13336;DHT22;6737;51.480;11.962;2023-08-07T10:57:18;17.10;99.90
13336;DHT22;6737;51.480;11.962;2023-08-07T10:59:51;17.40;99.90
13336;DHT22;6737;51.480;11.962;2023-08-07T11:02:30;17.70;99.90
13336;DHT22;6737;51.480;11.962;2023-08-07T11:04:58;17.90;99.90
13336;DHT22;6737;51.480;11.962;2023-08-07T11:07:28;18.10;99.90
13336;DHT22;6737;51.480;11.962;2023-08-07T11:09:56;18.20;99.90
13336;DHT22;6737;51.480;11.962;2023-08-07T11:12:28;18.40;99.90
13336;DHT22;6737;51.480;11.962;2023-08-07T11:14:55;18.30;99.90
13336;DHT22;6737;51.480;11.962;2023-08-07T11:17:28;18.40;99.90
13336;DHT22;6737;51.480;11.962;2023-08-07T11:19:55;18.50;99.90
13336;DHT22;6737;51.480;11.962;2023-08-07T11:22:21;18.70;99.90
13336;DHT22;6737;51.480;11.962;2023-08-07T11:24:47;18.70;99.90
13336;DHT22;6737;51.480;11.962;2023-08-07T11:27:13;18.70;99.90
13336;DHT22;6737;51.480;11.962;2023-08-07T11:29:39;18.70;99.90
13336;DHT22;6737;51.480;11.962;2023-08-07T11:32:05;18.70;99.90
13336;DHT22;6737;51.480;11.962;2023-08-07T11:34:31;18.60;99.90
13336;DHT22;6737;51.480;11.962;2023-08-07T11:36:57;18.40;99.90
13336;DHT22;6737;51.480;11.962;2023-08-07T11:39:23;18.10;99.90
13336;DHT22;6737;51.480;11.962;2023-08-07T11:41:51;17.70;99.90
13336;DHT22;6737;51.480;11.962;2023-08-07T11:44:18;17.40;99.90
13336;DHT22;6737;51.480;11.962;2023-08-07T11:46:44;17.30;99.90
13336;DHT22;6737;51.480;11.962;2023-08-07T11:49:10;17.40;99.90
13336;DHT22;6737;51.480;11.962;2023-08-07T11:51:37;17.60;99.90
13336;DHT22;6737;51.480;11.962;2023-08-07T11:54:03;17.70;99.90
13336;DHT22;6737;51.480;11.962;2023-08-07T11:56:29;17.80;99.90
13336;DHT22;6737;51.480;11.962;2023-08-07T11:58:57;17.80;99.90
13336;DHT22;6737;51.480;11.962;2023-08-07T12:01:25;17.70;99.90
13336;DHT22;6737;51.480;11.962;2023-08-07T12:04:09;17.60;99.90
13336;DHT22;6737;51.480;11.962;2023-08-07T12:06:35;17.50;99.90
13336;DHT22;6737;51.480;11.962;2023-08-07T12:09:03;17.50;99.90
13336;DHT22;6737;51.480;11.962;2023-08-07T12:11:29;17.50;99.90
13336;DHT22;6737;51.480;11.962;2023-08-07T12:13:56;17.50;99.90
13336;DHT22;6737;51.480;11.962;2023-08-07T12:16:21;17.50;99.90
13336;DHT22;6737;51.480;11.962;2023-08-07T12:18:49;17.50;99.90
13336;DHT22;6737;51.480;11.962;2023-08-07T12:21:17;17.30;99.90
13336;DHT22;6737;51.480;11.962;2023-08-07T12:23:45;17.00;99.90
13336;DHT22;6737;51.480;11.962;2023-08-07T12:26:13;16.50;99.90
13336;DHT22;6737;51.480;11.962;2023-08-07T12:28:39;16.10;99.90
13336;DHT22;6737;51.480;11.962;2023-08-07T12:31:06;15.90;99.90
13336;DHT22;6737;51.480;11.962;2023-08-07T12:33:35;15.90;99.90
13336;DHT22;6737;51.480;11.962;2023-08-07T12:36:01;15.90;99.90
13336;DHT22;6737;51.480;11.962;2023-08-07T12:38:27;16.00;99.90
13336;DHT22;6737;51.480;11.962;2023-08-07T12:40:53;16.10;99.90
13336;DHT22;6737;51.480;11.962;2023-08-07T12:43:19;16.30;99.90
13336;DHT22;6737;51.480;11.962;2023-08-07T12:45:45;16.30;99.90
13336;DHT22;6737;51.480;11.962;2023-08-07T12:48:11;16.40;99.90
13336;DHT22;6737;51.480;11.962;2023-08-07T12:50:38;16.40;99.90
13336;DHT22;6737;51.480;11.962;2023-08-07T12:53:04;16.30;99.90
13336;DHT22;6737;51.480;11.962;2023-08-07T12:55:30;16.10;99.90
13336;DHT22;6737;51.480;11.962;2023-08-07T12:57:57;16.00;99.90
13336;DHT22;6737;51.480;11.962;2023-08-07T13:00:23;15.80;99.90
13336;DHT22;6737;51.480;11.962;2023-08-07T13:02:51;15.70;99.90
13336;DHT22;6737;51.480;11.962;2023-08-07T13:05:18;15.60;99.90
13336;DHT22;6737;51.480;11.962;2023-08-07T13:07:45;15.40;99.90
13336;DHT22;6737;51.480;11.962;2023-08-07T13:10:13;15.50;99.90
13336;DHT22;6737;51.480;11.962;2023-08-07T13:12:40;15.50;99.90
13336;DHT22;6737;51.480;11.962;2023-08-07T13:15:08;15.50;99.90
13336;DHT22;6737;51.480;11.962;2023-08-07T13:17:35;15.50;99.90
13336;DHT22;6737;51.480;11.962;2023-08-07T13:20:03;15.50;99.90
13336;DHT22;6737;51.480;11.962;2023-08-07T13:22:40;15.60;99.90
13336;DHT22;6737;51.480;11.962;2023-08-07T13:25:07;15.70;99.90
13336;DHT22;6737;51.480;11.962;2023-08-07T13:27:35;15.80;99.90
13336;DHT22;6737;51.480;11.962;2023-08-07T13:30:02;16.00;99.90
13336;DHT22;6737;51.480;11.962;2023-08-07T13:32:28;16.20;99.90
13336;DHT22;6737;51.480;11.962;2023-08-07T13:34:54;16.30;99.90
13336;DHT22;6737;51.480;11.962;2023-08-07T13:37:20;16.40;99.90
13336;DHT22;6737;51.480;11.962;2023-08-07T13:39:46;16.60;99.90
13336;DHT22;6737;51.480;11.962;2023-08-07T13:42:14;16.60;99.90
13336;DHT22;6737;51.480;11.962;2023-08-07T13:44:40;16.50;99.90
13336;DHT22;6737;51.480;11.962;2023-08-07T13:47:06;16.30;99.90
13336;DHT22;6737;51.480;11.962;2023-08-07T13:49:32;16.10;99.90
13336;DHT22;6737;51.480;11.962;2023-08-07T13:51:58;15.90;99.90
13336;DHT22;6737;51.480;11.962;2023-08-07T13:54:24;15.60;99.90
13336;DHT22;6737;51.480;11.962;2023-08-07T13:56:50;15.30;99.90
13336;DHT22;6737;51.480;11.962;2023-08-07T13:59:16;15.10;99.90
13336;DHT22;6737;51.480;11.962;2023-08-07T14:01:42;15.10;99.90
13336;DHT22;6737;51.480;11.962;2023-08-07T14:04:08;15.10;99.90
13336;DHT22;6737;51.480;11.962;2023-08-07T14:06:34;15.10;99.90
13336;DHT22;6737;51.480;11.962;2023-08-07T14:09:00;15.20;99.90
13336;DHT22;6737;51.480;11.962;2023-08-07T14:11:25;15.30;99.90
13336;DHT22;6737;51.480;11.962;2023-08-07T14:13:56;15.40;99.90
13336;DHT22;6737;51.480;11.962;2023-08-07T14:16:23;15.40;99.90
13336;DHT22;6737;51.480;11.962;2023-08-07T14:18:49;15.50;99.90
13336;DHT22;6737;51.480;11.962;2023-08-07T14:21:15;15.70;99.90
13336;DHT22;6737;51.480;11.962;2023-08-07T14:23:41;15.80;99.90
13336;DHT22;6737;51.480;11.962;2023-08-07T14:26:14;16.00;99.90
13336;DHT22;6737;51.480;11.962;2023-08-07T14:28:42;16.10;99.90
13336;DHT22;6737;51.480;11.962;2023-08-07T14:31:08;16.30;99.90
13336;DHT22;6737;51.480;11.962;2023-08-07T14:33:35;16.30;99.90
13336;DHT22;6737;51.480;11.962;2023-08-07T14:36:01;16.30;99.90
13336;DHT22;6737;51.480;11.962;2023-08-07T14:38:28;16.40;99.90
13336;DHT22;6737;51.480;11.962;2023-08-07T14:40:54;16.40;99.90
13336;DHT22;6737;51.480;11.962;2023-08-07T14:43:19;16.60;99.90
13336;DHT22;6737;51.480;11.962;2023-08-07T14:45:45;16.70;99.90
13336;DHT22;6737;51.480;11.962;2023-08-07T14:48:12;16.70;99.90
13336;DHT22;6737;51.480;11.962;2023-08-07T14:50:39;16.60;99.90
13336;DHT22;6737;51.480;11.962;2023-08-07T14:53:05;16.50;99.90
13336;DHT22;6737;51.480;11.962;2023-08-07T14:55:31;16.40;99.90
13336;DHT22;6737;51.480;11.962;2023-08-07T14:57:57;16.40;99.90
13336;DHT22;6737;51.480;11.962;2023-08-07T15:00:22;16.40;99.90
13336;DHT22;6737;51.480;11.962;2023-08-07T15:02:48;16.30;99.90
13336;DHT22;6737;51.480;11.962;2023-08-07T15:05:14;16.20;99.90
13336;DHT22;6737;51.480;11.962;2023-08-07T15:07:40;16.10;99.90
13336;DHT22;6737;51.480;11.962;2023-08-07T15:10:08;16.00;99.90
13336;DHT22;6737;51.480;11.962;2023-08-07T15:12:34;16.00;99.90
13336;DHT22;6737;51.480;11.962;2023-08-07T15:14:59;15.90;99.90
13336;DHT22;6737;51.480;11.962;2023-08-07T15:17:25;15.90;99.90
13336;DHT22;6737;51.480;11.962;2023-08-07T15:19:51;15.80;99.90
13336;DHT22;6737;51.480;11.962;2023-08-07T15:22:16;15.90;99.90
13336;DHT22;6737;51.480;11.962;2023-08-07T15:24:42;16.10;99.90
13336;DHT22;6737;51.480;11.962;2023-08-07T15:27:08;16.20;99.90
13336;DHT22;6737;51.480;11.962;2023-08-07T15:29:34;16.20;99.90